Airfield :
LOGIN :

Register | Disclaimer

   EN    FR    IT 

 










Legend :    VFR   Marginal VFR   IFR   Intensive IFR   Very Intensive IFR
Visi :
Ceiling :
>= 8 km
>= 3000ft
5 to 8 km
1000 to 3000 ft
1500m to 5 km
500 to 1000 ft
800 to 1500m
200 to 500 ft
< 800m
< 200 ft
Symbols :   Thunderstorms  Fog  Heavy snow  Heavy precipitations  Wind > 20 kt
SIGMETs :     Misc.  Thunderstorms  Icing  Turbulence  Mountain Waves  Volcanic Ashes







- Airport Elevation : 401 ft
- IATA code : LEQ
- Download approach charts


EGHC - Land's End

CURRENT METAR :
  • 251420Z 22013KT 9999 FEW020CB 12/06 Q0996

EXPIRED METARs :
  • 251350Z 22017KT 9999 FEW020 11/09 Q0996
  • 251320Z 22020KT 9999 VCSH FEW012 SCT025 12/06 Q0995
  • 251250Z 21019KT 9999 VCSH FEW012 SCT025 12/08 Q0995
  • 251220Z 22016KT 9999 -SHRA FEW008 FEW016CB 11/09 Q0994
  • 251150Z 22016KT 9999 -SHRA FEW008 FEW016CB 11/09 Q0994

TAF TAF EGHC
Valid from the 25 at 15:00 until the 25 at 18:00 UTC


251406Z 2515/2518 21017KT 9999 SCT025
TEMPO 2515/2518 7000 SHRA
No reported NOTAMs for that airfield.
2 SIGMETs reported for the London FIR (EGTT) :
 
Frequent thunderstorms
EGTT SIGMET 03 VALID 251410/251600 EGRR
EGTT LONDON FIR FRQ TS FCST WI N5310 W00100 - N5249 W00049 - N5243 W00303 - N5333 W00311 - N5310 W00100 TOP FL270 MOV N 15KT NC=
Embedded thunderstorms
EGTT SIGMET 02 VALID 251410/251700 EGRR
EGTT LONDON FIR EMBD TS FCST WI N5429 W00033 - N5325 E00024 - N5404 W00301 - N5438 W00309 - N5429 W00033 TOP FL270 MOV N 15KT NC=



MET'MAP, your aeronautical weather chart ! - Copyright ORBIFLY December 2007 - Disclaimer

ORBIFLY MET'MAP TEAM :

Programming & Development : Alexandra Zaïnal
Concept & Development : Baudouin d'Aumeries
Co-Development & Prog : Marc-Olivier Méhu
Technical & hardware support : Manuel Goepfert

Contact : metmap@orbifly.com




SOURCES & CREDITS :

   NOAA